createdAt,value
2018-08-17T00:01:56.279Z,3.40
2018-08-17T00:04:24.624Z,3.20
2018-08-17T00:06:52.912Z,3.17
2018-08-17T00:09:21.161Z,3.20
2018-08-17T00:11:49.385Z,3.50
2018-08-17T00:14:17.761Z,3.47
2018-08-17T00:16:45.995Z,3.20
2018-08-17T00:19:14.317Z,3.53
2018-08-17T00:21:42.523Z,3.50
2018-08-17T00:24:11.594Z,3.50
2018-08-17T00:26:40.338Z,3.67
2018-08-17T00:29:08.785Z,3.33
2018-08-17T00:31:37.464Z,3.40
2018-08-17T00:34:05.763Z,3.60
2018-08-17T00:36:34.042Z,3.57
2018-08-17T00:39:02.295Z,3.70
2018-08-17T00:41:30.498Z,3.40
2018-08-17T00:43:58.721Z,3.77
2018-08-17T00:46:26.956Z,3.60
2018-08-17T00:48:55.259Z,3.27
2018-08-17T00:51:23.575Z,3.47
2018-08-17T00:53:51.852Z,3.70
2018-08-17T00:56:20.103Z,3.60
2018-08-17T00:58:48.304Z,3.10
2018-08-17T01:01:16.690Z,3.73
2018-08-17T01:03:45.008Z,3.90
2018-08-17T01:06:13.542Z,3.30
2018-08-17T01:08:41.777Z,3.50
2018-08-17T01:11:10.118Z,3.90
2018-08-17T01:13:38.403Z,3.17
2018-08-17T01:16:06.615Z,3.70
2018-08-17T01:18:34.878Z,4.30
2018-08-17T01:21:03.126Z,3.90
2018-08-17T01:23:31.366Z,3.50
2018-08-17T01:25:59.574Z,3.70
2018-08-17T01:28:27.820Z,3.80
2018-08-17T01:30:56.075Z,3.10
2018-08-17T01:33:24.453Z,3.33
2018-08-17T01:35:52.741Z,3.73
2018-08-17T01:38:20.912Z,3.97
2018-08-17T01:40:49.109Z,3.97
2018-08-17T01:43:17.362Z,3.57
2018-08-17T01:45:46.038Z,3.77
2018-08-17T01:48:14.293Z,3.80
2018-08-17T01:50:42.485Z,3.90
2018-08-17T01:53:10.781Z,4.17
2018-08-17T01:55:39.189Z,4.17
2018-08-17T01:58:07.547Z,3.97
2018-08-17T02:00:35.770Z,3.43
2018-08-17T02:03:03.992Z,3.40
2018-08-17T02:05:32.473Z,3.43
2018-08-17T02:08:00.853Z,3.93
2018-08-17T02:10:29.282Z,4.00
2018-08-17T02:12:57.478Z,4.07
2018-08-17T02:15:25.836Z,3.90
2018-08-17T02:17:54.135Z,4.23
2018-08-17T02:20:22.353Z,3.77
2018-08-17T02:22:50.561Z,3.97
2018-08-17T02:25:18.919Z,3.70
2018-08-17T02:27:47.232Z,4.43
2018-08-17T02:30:15.549Z,4.30
2018-08-17T02:32:43.771Z,4.47
2018-08-17T02:35:11.970Z,4.00
2018-08-17T02:37:40.350Z,4.57
2018-08-17T02:40:08.824Z,3.57
2018-08-17T02:42:37.039Z,3.80
2018-08-17T02:45:05.817Z,4.40
2018-08-17T02:47:34.038Z,3.90
2018-08-17T02:50:02.402Z,4.30
2018-08-17T02:52:30.700Z,4.37
2018-08-17T02:54:58.893Z,4.73
2018-08-17T02:57:27.705Z,4.00
2018-08-17T02:59:55.965Z,4.10
2018-08-17T03:02:24.226Z,4.43
2018-08-17T03:04:52.458Z,4.30
2018-08-17T03:07:20.690Z,3.90
2018-08-17T03:09:48.920Z,4.63
2018-08-17T03:12:17.797Z,4.70
2018-08-17T03:14:46.195Z,4.30
2018-08-17T03:17:14.413Z,4.13
2018-08-17T03:19:42.601Z,4.57
2018-08-17T03:22:10.813Z,3.63
2018-08-17T03:24:39.093Z,4.43
2018-08-17T03:27:07.431Z,4.33
2018-08-17T03:29:35.662Z,4.20
2018-08-17T03:32:04.781Z,4.30
2018-08-17T03:34:33.233Z,4.40
2018-08-17T03:37:02.449Z,4.70
2018-08-17T03:39:30.667Z,3.80
2018-08-17T03:41:58.837Z,4.50
2018-08-17T03:44:27.044Z,4.20
2018-08-17T03:46:55.595Z,4.33
2018-08-17T03:49:23.814Z,4.47
2018-08-17T03:51:52.034Z,4.27
2018-08-17T03:54:20.255Z,3.90
2018-08-17T03:56:49.153Z,4.40
2018-08-17T03:59:17.387Z,4.40
2018-08-17T04:01:45.681Z,4.50
2018-08-17T04:04:13.869Z,4.30
2018-08-17T04:06:42.182Z,4.87
2018-08-17T04:09:11.390Z,5.10
2018-08-17T04:11:40.069Z,4.13
2018-08-17T04:14:08.895Z,4.70
2018-08-17T04:16:37.124Z,4.37
2018-08-17T04:19:05.460Z,4.67
2018-08-17T04:21:33.698Z,4.50
2018-08-17T04:24:02.044Z,4.30
2018-08-17T04:26:30.285Z,4.73
2018-08-17T04:28:58.865Z,4.70
2018-08-17T04:31:27.046Z,4.90
2018-08-17T04:33:55.909Z,4.77
2018-08-17T04:36:24.224Z,4.37
2018-08-17T04:38:52.418Z,4.27
2018-08-17T04:41:20.695Z,4.40
2018-08-17T04:43:48.934Z,4.57
2018-08-17T04:46:17.154Z,4.70
2018-08-17T04:48:45.471Z,4.63
2018-08-17T04:51:13.627Z,4.50
2018-08-17T04:53:41.861Z,4.47
2018-08-17T04:56:10.223Z,4.77
2018-08-17T04:58:38.557Z,4.60
2018-08-17T05:01:06.766Z,4.20
2018-08-17T05:03:34.977Z,4.77
2018-08-17T05:06:03.206Z,4.37
2018-08-17T05:08:31.537Z,4.30
2018-08-17T05:10:59.781Z,4.30
2018-08-17T05:13:27.974Z,4.17
2018-08-17T05:15:56.187Z,4.30
2018-08-17T05:18:24.425Z,4.40
2018-08-17T05:20:52.660Z,4.80
2018-08-17T05:23:20.887Z,4.43
2018-08-17T05:25:49.126Z,4.57
2018-08-17T05:28:17.417Z,4.30
2018-08-17T05:30:45.617Z,4.53
2018-08-17T05:33:14.621Z,4.73
2018-08-17T05:35:42.835Z,5.37
2018-08-17T05:38:11.049Z,4.60
2018-08-17T05:40:39.349Z,4.37
2018-08-17T05:43:07.501Z,4.23
2018-08-17T05:45:35.736Z,4.70
2018-08-17T05:48:03.918Z,4.57
2018-08-17T05:50:34.041Z,4.60
2018-08-17T05:53:03.256Z,3.90
2018-08-17T05:55:31.688Z,3.90
2018-08-17T05:57:59.870Z,4.53
2018-08-17T06:00:28.055Z,4.30
2018-08-17T06:02:56.262Z,4.37
2018-08-17T06:05:24.557Z,4.27
2018-08-17T06:07:52.894Z,4.20
2018-08-17T06:10:21.055Z,4.10
2018-08-17T06:12:49.236Z,3.87
2018-08-17T06:15:17.548Z,3.50
2018-08-17T06:17:46.279Z,3.80
2018-08-17T06:20:14.457Z,3.77
2018-08-17T06:22:42.646Z,3.90
2018-08-17T06:25:12.377Z,4.10
2018-08-17T06:27:41.378Z,3.60
2018-08-17T06:30:15.841Z,3.90
2018-08-17T06:32:44.247Z,3.77
2018-08-17T06:35:13.357Z,3.80
2018-08-17T06:37:42.361Z,3.63
2018-08-17T06:40:10.904Z,3.57
2018-08-17T06:42:39.347Z,3.23
2018-08-17T06:45:09.176Z,3.60
2018-08-17T06:47:37.387Z,3.60
2018-08-17T06:50:07.087Z,3.77
2018-08-17T06:52:35.269Z,3.30
2018-08-17T06:55:03.468Z,3.47
2018-08-17T06:57:31.711Z,3.10
2018-08-17T06:59:59.894Z,3.40
2018-08-17T07:02:28.148Z,3.13
2018-08-17T07:04:56.615Z,3.30
2018-08-17T07:07:24.913Z,3.33
2018-08-17T07:09:53.107Z,3.20
2018-08-17T07:12:21.294Z,3.17
2018-08-17T07:14:49.501Z,3.10
2018-08-17T07:17:17.838Z,3.23
2018-08-17T07:19:46.131Z,3.00
2018-08-17T07:22:14.301Z,2.77
2018-08-17T07:24:42.493Z,3.00
2018-08-17T07:27:10.817Z,2.70
2018-08-17T07:29:39.187Z,3.37
2018-08-17T07:32:07.450Z,2.80
2018-08-17T07:34:35.615Z,3.20
2018-08-17T07:37:04.282Z,3.00
2018-08-17T07:39:32.672Z,3.12
2018-08-17T07:42:00.929Z,2.62
2018-08-17T07:44:29.135Z,2.80
2018-08-17T07:46:57.326Z,2.85
2018-08-17T07:49:25.772Z,2.77
2018-08-17T07:51:53.994Z,2.70
2018-08-17T07:54:22.183Z,2.80
2018-08-17T07:56:50.412Z,2.98
2018-08-17T07:59:18.611Z,3.12
2018-08-17T08:01:47.106Z,2.70
2018-08-17T08:04:15.446Z,2.80
2018-08-17T08:06:43.633Z,2.65
2018-08-17T08:09:11.861Z,3.27
2018-08-17T08:11:42.011Z,2.30
2018-08-17T08:14:11.026Z,2.50
2018-08-17T08:16:39.317Z,2.40
2018-08-17T08:19:10.723Z,2.58
2018-08-17T08:21:39.178Z,2.75
2018-08-17T08:24:07.383Z,2.80
2018-08-17T08:26:35.826Z,2.15
2018-08-17T08:29:04.046Z,2.10
2018-08-17T08:31:32.309Z,2.42
2018-08-17T08:34:00.862Z,2.10
2018-08-17T08:36:29.472Z,2.47
2018-08-17T08:38:57.738Z,2.00
2018-08-17T08:41:26.105Z,2.30
2018-08-17T08:43:54.338Z,2.05
2018-08-17T08:46:22.575Z,2.10
2018-08-17T08:48:50.793Z,2.55
2018-08-17T08:51:19.009Z,2.10
2018-08-17T08:53:47.702Z,2.10
2018-08-17T08:56:15.909Z,1.72
2018-08-17T08:58:44.103Z,2.20
2018-08-17T09:01:12.348Z,1.90
2018-08-17T09:03:40.754Z,1.87
2018-08-17T09:06:09.203Z,1.60
2018-08-17T09:08:37.390Z,1.72
2018-08-17T09:11:05.980Z,1.50
2018-08-17T09:13:34.231Z,1.45
2018-08-17T09:16:03.093Z,1.87
2018-08-17T09:18:31.432Z,1.80
2018-08-17T09:20:59.695Z,1.67
2018-08-17T09:23:27.921Z,1.87
2018-08-17T09:25:56.161Z,1.60
2018-08-17T09:28:24.431Z,1.55
2018-08-17T09:30:52.699Z,1.45
2018-08-17T09:33:21.099Z,1.67
2018-08-17T09:35:49.299Z,1.32
2018-08-17T09:38:17.823Z,1.60
2018-08-17T09:40:46.390Z,1.40
2018-08-17T09:43:14.601Z,1.55
2018-08-17T09:45:42.849Z,1.87
2018-08-17T09:48:11.098Z,1.52
2018-08-17T09:50:39.472Z,1.80
2018-08-17T09:53:07.710Z,1.72
2018-08-17T09:55:35.928Z,1.70
2018-08-17T09:58:04.130Z,1.90
2018-08-17T10:00:37.737Z,1.57
2018-08-17T10:03:11.358Z,1.60
2018-08-17T10:05:40.995Z,1.65
2018-08-17T10:08:14.551Z,1.87
2018-08-17T10:10:43.070Z,1.70
2018-08-17T10:13:11.297Z,1.80
2018-08-17T10:15:42.217Z,1.50
2018-08-17T10:18:10.946Z,1.72
2018-08-17T10:20:39.348Z,1.70
2018-08-17T10:23:13.335Z,1.57
2018-08-17T10:25:41.541Z,1.65
2018-08-17T10:28:10.398Z,1.75
2018-08-17T10:30:38.696Z,1.82
2018-08-17T10:33:06.999Z,1.72
2018-08-17T10:35:36.174Z,1.40
2018-08-17T10:38:05.639Z,1.60
2018-08-17T10:40:33.883Z,1.65
2018-08-17T10:43:03.390Z,1.65
2018-08-17T10:45:32.588Z,2.22
2018-08-17T10:48:00.849Z,1.62
2018-08-17T10:50:30.442Z,1.40
2018-08-17T10:52:59.974Z,1.50
2018-08-17T10:55:40.623Z,1.60
2018-08-17T10:58:11.894Z,1.50
2018-08-17T11:00:40.405Z,1.57
2018-08-17T11:03:08.812Z,1.50
2018-08-17T11:05:37.096Z,1.65
2018-08-17T11:08:05.408Z,1.70
2018-08-17T11:10:33.782Z,1.55
2018-08-17T11:13:02.062Z,1.70
2018-08-17T11:15:31.056Z,1.92
2018-08-17T11:18:01.883Z,1.62
2018-08-17T11:20:30.630Z,1.52
2018-08-17T11:23:00.536Z,1.67
2018-08-17T11:25:28.866Z,1.45
2018-08-17T11:27:57.180Z,1.50
2018-08-17T11:30:26.516Z,1.35
2018-08-17T11:32:55.567Z,1.80
2018-08-17T11:35:28.852Z,1.70
2018-08-17T11:37:57.707Z,1.42
2018-08-17T11:40:26.612Z,1.60
2018-08-17T11:42:55.745Z,1.80
2018-08-17T11:45:25.922Z,1.42
2018-08-17T11:47:55.795Z,1.80
2018-08-17T11:50:26.044Z,1.50
2018-08-17T11:53:00.004Z,1.30
2018-08-17T11:55:30.118Z,1.40
2018-08-17T11:57:58.858Z,1.42
2018-08-17T12:00:31.383Z,1.50
2018-08-17T12:02:59.678Z,1.17
2018-08-17T12:05:27.910Z,1.30
2018-08-17T12:07:56.320Z,1.40
2018-08-17T12:10:24.587Z,1.30
2018-08-17T12:12:52.803Z,1.40
2018-08-17T12:15:21.047Z,1.37
2018-08-17T12:17:49.290Z,1.42
2018-08-17T12:20:17.553Z,1.60
2018-08-17T12:22:45.925Z,1.50
2018-08-17T12:25:14.138Z,1.50
2018-08-17T12:27:46.758Z,1.55
2018-08-17T12:30:15.058Z,1.30
2018-08-17T12:32:43.270Z,1.42
2018-08-17T12:35:11.553Z,1.60
2018-08-17T12:37:39.821Z,1.70
2018-08-17T12:40:08.132Z,1.70
2018-08-17T12:42:37.122Z,1.62
2018-08-17T12:45:11.034Z,1.62
2018-08-17T12:47:39.786Z,1.67
2018-08-17T12:50:08.034Z,1.70
2018-08-17T12:52:37.095Z,1.80
2018-08-17T12:55:06.236Z,1.60
2018-08-17T12:57:41.933Z,1.60
2018-08-17T13:00:12.598Z,1.70
2018-08-17T13:02:41.714Z,1.45
2018-08-17T13:05:10.786Z,1.67
2018-08-17T13:07:39.837Z,1.50
2018-08-17T13:10:09.005Z,1.77
2018-08-17T13:12:38.099Z,1.67
2018-08-17T13:15:07.084Z,1.90
2018-08-17T13:17:41.192Z,2.10
2018-08-17T13:20:12.843Z,1.85
2018-08-17T13:22:41.897Z,1.77
2018-08-17T13:25:10.227Z,2.00
2018-08-17T13:27:38.833Z,1.90
2018-08-17T13:30:09.401Z,2.00
2018-08-17T13:32:37.661Z,1.82
2018-08-17T13:35:05.887Z,1.92
2018-08-17T13:37:34.926Z,2.05
2018-08-17T13:40:03.333Z,1.55
2018-08-17T13:42:31.457Z,2.10
2018-08-17T13:44:59.738Z,1.80
2018-08-17T13:47:28.013Z,1.90
2018-08-17T13:49:56.914Z,2.22
2018-08-17T13:52:25.839Z,1.70
2018-08-17T13:54:55.383Z,1.70
2018-08-17T13:57:24.365Z,1.62
2018-08-17T13:59:53.500Z,1.77
2018-08-17T14:02:22.406Z,1.95
2018-08-17T14:04:52.106Z,1.67
2018-08-17T14:07:21.181Z,1.72
2018-08-17T14:09:51.010Z,1.87
2018-08-17T14:12:19.901Z,1.67
2018-08-17T14:14:49.365Z,2.05
2018-08-17T14:17:18.213Z,1.82
2018-08-17T14:19:47.123Z,2.05
2018-08-17T14:22:17.568Z,1.90
2018-08-17T14:24:46.480Z,1.90
2018-08-17T14:27:15.350Z,1.75
2018-08-17T14:29:44.261Z,1.80
2018-08-17T14:32:13.077Z,1.72
2018-08-17T14:34:42.093Z,1.75
2018-08-17T14:37:11.144Z,1.65
2018-08-17T14:39:40.011Z,1.77
2018-08-17T14:42:09.041Z,1.82
2018-08-17T14:44:38.009Z,1.67
2018-08-17T14:47:06.794Z,1.62
2018-08-17T14:49:35.602Z,1.67
2018-08-17T14:52:05.806Z,1.87
2018-08-17T14:54:34.935Z,1.55
2018-08-17T14:57:03.917Z,1.85
2018-08-17T14:59:32.658Z,1.77
2018-08-17T15:02:02.047Z,1.60
2018-08-17T15:04:30.289Z,1.50
2018-08-17T15:06:58.498Z,1.42
2018-08-17T15:09:26.724Z,1.55
2018-08-17T15:11:55.218Z,1.50
2018-08-17T15:14:23.553Z,1.50
2018-08-17T15:16:51.876Z,1.50
2018-08-17T15:19:20.123Z,1.60
2018-08-17T15:21:48.530Z,1.55
2018-08-17T15:24:19.916Z,1.67
2018-08-17T15:26:48.382Z,1.60
2018-08-17T15:29:16.991Z,1.90
2018-08-17T15:31:45.218Z,1.60
2018-08-17T15:34:13.493Z,1.80
2018-08-17T15:36:41.714Z,2.20
2018-08-17T15:39:10.209Z,1.70
2018-08-17T15:41:44.056Z,1.72
2018-08-17T15:44:17.573Z,1.57
2018-08-17T15:46:45.941Z,1.60
2018-08-17T15:49:19.984Z,1.60
2018-08-17T15:51:48.663Z,1.67
2018-08-17T15:54:17.012Z,1.50
2018-08-17T15:56:45.336Z,1.47
2018-08-17T15:59:13.795Z,1.72
2018-08-17T16:01:42.113Z,1.90
2018-08-17T16:04:10.498Z,1.50
2018-08-17T16:06:39.289Z,1.60
2018-08-17T16:09:09.412Z,1.80
2018-08-17T16:11:37.854Z,1.75
2018-08-17T16:14:06.381Z,2.12
2018-08-17T16:16:34.790Z,1.70
2018-08-17T16:19:04.060Z,1.80
2018-08-17T16:21:32.843Z,1.70
2018-08-17T16:24:02.554Z,1.60
2018-08-17T16:26:30.876Z,1.92
2018-08-17T16:28:59.333Z,1.85
2018-08-17T16:31:27.590Z,1.55
2018-08-17T16:33:56.015Z,1.42
2018-08-17T16:36:24.382Z,1.52
2018-08-17T16:38:52.643Z,1.85
2018-08-17T16:41:20.871Z,2.02
2018-08-17T16:43:49.164Z,2.00
2018-08-17T16:46:17.451Z,1.70
2018-08-17T16:48:45.763Z,1.87
2018-08-17T16:51:13.975Z,1.90
2018-08-17T16:53:42.410Z,1.90
2018-08-17T16:56:10.797Z,2.00
2018-08-17T16:58:39.125Z,1.80
2018-08-17T17:01:07.411Z,1.85
2018-08-17T17:03:35.637Z,2.22
2018-08-17T17:06:04.906Z,1.52
2018-08-17T17:08:33.437Z,1.90
2018-08-17T17:11:02.585Z,2.25
2018-08-17T17:13:30.835Z,1.72
2018-08-17T17:15:59.053Z,1.80
2018-08-17T17:18:27.338Z,2.12
2018-08-17T17:20:55.868Z,1.47
2018-08-17T17:23:24.173Z,2.10
2018-08-17T17:25:52.491Z,1.72
2018-08-17T17:28:20.776Z,1.82
2018-08-17T17:30:50.492Z,1.80
2018-08-17T17:33:19.115Z,2.02
2018-08-17T17:35:47.422Z,2.20
2018-08-17T17:38:15.727Z,1.85
2018-08-17T17:40:43.974Z,1.80
2018-08-17T17:43:12.204Z,1.80
2018-08-17T17:45:40.973Z,1.70
2018-08-17T17:48:09.629Z,1.80
2018-08-17T17:50:37.890Z,2.33
2018-08-17T17:53:06.287Z,1.92
2018-08-17T17:55:42.942Z,1.95
2018-08-17T17:58:11.607Z,2.12
2018-08-17T18:00:40.126Z,1.90
2018-08-17T18:03:09.807Z,2.52
2018-08-17T18:05:38.033Z,2.10
2018-08-17T18:08:11.853Z,1.80
2018-08-17T18:10:40.626Z,2.37
2018-08-17T18:13:09.235Z,2.30
2018-08-17T18:15:37.469Z,1.90
2018-08-17T18:18:05.709Z,2.12
2018-08-17T18:20:34.142Z,2.22
2018-08-17T18:23:02.554Z,2.10
2018-08-17T18:25:30.793Z,2.12
2018-08-17T18:27:59.061Z,2.22
2018-08-17T18:30:27.349Z,2.30
2018-08-17T18:32:56.835Z,1.87
2018-08-17T18:35:25.555Z,2.10
2018-08-17T18:37:53.791Z,2.17
2018-08-17T18:40:22.103Z,2.35
2018-08-17T18:42:50.462Z,2.37
2018-08-17T18:45:19.038Z,2.40
2018-08-17T18:47:47.584Z,2.30
2018-08-17T18:50:15.793Z,2.10
2018-08-17T18:52:44.057Z,2.10
2018-08-17T18:55:12.210Z,2.40
2018-08-17T18:57:40.766Z,2.80
2018-08-17T19:00:12.355Z,2.27
2018-08-17T19:02:41.887Z,2.27
2018-08-17T19:05:10.839Z,2.17
2018-08-17T19:07:40.001Z,2.30
2018-08-17T19:10:09.659Z,2.37
2018-08-17T19:12:37.854Z,2.07
2018-08-17T19:15:10.657Z,2.47
2018-08-17T19:17:39.014Z,2.10
2018-08-17T19:20:11.827Z,2.27
2018-08-17T19:22:42.193Z,2.10
2018-08-17T19:25:11.966Z,2.30
2018-08-17T19:27:40.951Z,2.20
2018-08-17T19:30:25.039Z,2.30
2018-08-17T19:32:54.567Z,2.20
2018-08-17T19:35:22.798Z,2.40
2018-08-17T19:37:51.818Z,2.17
2018-08-17T19:40:20.641Z,2.13
2018-08-17T19:42:49.372Z,2.30
2018-08-17T19:45:18.059Z,2.27
2018-08-17T19:47:46.283Z,2.30
2018-08-17T19:50:14.642Z,2.10
2018-08-17T19:52:42.964Z,2.10
2018-08-17T19:55:11.251Z,2.17
2018-08-17T19:57:39.671Z,1.93
2018-08-17T20:00:09.785Z,2.30
2018-08-17T20:02:38.014Z,1.80
2018-08-17T20:05:06.520Z,1.80
2018-08-17T20:07:34.810Z,2.00
2018-08-17T20:10:03.086Z,2.10
2018-08-17T20:12:31.383Z,2.05
2018-08-17T20:14:59.586Z,2.00
2018-08-17T20:17:27.822Z,2.10
2018-08-17T20:19:56.310Z,2.23
2018-08-17T20:22:24.629Z,1.87
2018-08-17T20:24:52.925Z,1.90
2018-08-17T20:27:21.143Z,1.97
2018-08-17T20:29:49.433Z,2.00
2018-08-17T20:32:18.526Z,2.10
2018-08-17T20:34:48.603Z,2.00
2018-08-17T20:37:17.643Z,2.20
2018-08-17T20:39:47.084Z,2.12
2018-08-17T20:42:15.378Z,2.00
2018-08-17T20:44:43.582Z,2.00
2018-08-17T20:47:12.342Z,1.80
2018-08-17T20:49:40.829Z,1.83
2018-08-17T20:52:09.862Z,1.93
2018-08-17T20:54:38.073Z,2.02
2018-08-17T20:57:06.324Z,2.30
2018-08-17T20:59:34.569Z,1.93
2018-08-17T21:02:03.757Z,2.10
2018-08-17T21:04:32.166Z,2.12
2018-08-17T21:07:00.405Z,2.00
2018-08-17T21:09:28.685Z,2.27
2018-08-17T21:11:56.962Z,2.07
2018-08-17T21:14:25.609Z,2.30
2018-08-17T21:16:53.917Z,2.20
2018-08-17T21:19:27.523Z,2.10
2018-08-17T21:21:55.862Z,2.30
2018-08-17T21:24:24.212Z,2.27
2018-08-17T21:26:52.418Z,1.80
2018-08-17T21:29:20.766Z,2.27
2018-08-17T21:31:50.641Z,2.70
2018-08-17T21:34:19.186Z,2.37
2018-08-17T21:36:47.597Z,2.33
2018-08-17T21:39:17.655Z,2.30
2018-08-17T21:41:47.204Z,2.47
2018-08-17T21:44:16.674Z,2.37
2018-08-17T21:47:06.610Z,2.40
2018-08-17T21:49:35.714Z,2.87
2018-08-17T21:52:05.928Z,2.43
2018-08-17T21:54:34.818Z,2.60
2018-08-17T21:57:04.121Z,2.20
2018-08-17T21:59:37.793Z,2.67
2018-08-17T22:02:09.218Z,2.63
2018-08-17T22:04:37.458Z,2.50
2018-08-17T22:07:14.745Z,2.73
2018-08-17T22:09:43.576Z,2.90
2018-08-17T22:12:12.328Z,2.40
2018-08-17T22:14:40.991Z,2.63
2018-08-17T22:17:21.045Z,2.60
2018-08-17T22:19:49.306Z,2.77
2018-08-17T22:22:17.841Z,2.77
2018-08-17T22:24:50.396Z,2.70
2018-08-17T22:27:19.301Z,2.97
2018-08-17T22:29:49.252Z,2.97
2018-08-17T22:32:17.531Z,2.70
2018-08-17T22:34:45.986Z,2.77
2018-08-17T22:37:14.222Z,2.90
2018-08-17T22:39:42.398Z,2.67
2018-08-17T22:42:10.827Z,2.60
2018-08-17T22:44:39.025Z,2.70
2018-08-17T22:47:27.278Z,2.57
2018-08-17T22:49:57.122Z,2.60
2018-08-17T22:52:25.650Z,2.63
2018-08-17T22:55:00.102Z,3.00
2018-08-17T22:57:28.961Z,2.53
2018-08-17T23:00:10.909Z,2.90
2018-08-17T23:02:40.309Z,2.83
2018-08-17T23:05:11.054Z,2.73
2018-08-17T23:07:39.277Z,2.87
2018-08-17T23:10:11.045Z,2.90
2018-08-17T23:12:39.247Z,2.73
2018-08-17T23:15:10.173Z,2.60
2018-08-17T23:17:38.696Z,3.00
2018-08-17T23:20:07.413Z,2.73
2018-08-17T23:22:44.026Z,3.00
2018-08-17T23:25:12.322Z,3.03
2018-08-17T23:27:41.194Z,3.10
2018-08-17T23:30:09.686Z,2.87
2018-08-17T23:32:37.883Z,2.90
2018-08-17T23:35:06.318Z,2.90
2018-08-17T23:37:34.709Z,2.67
2018-08-17T23:40:04.450Z,2.90
2018-08-17T23:42:32.847Z,2.60
2018-08-17T23:45:01.054Z,2.63
2018-08-17T23:47:29.258Z,2.70
2018-08-17T23:49:57.478Z,2.97
2018-08-17T23:52:25.990Z,3.00
2018-08-17T23:54:54.353Z,2.57
2018-08-17T23:57:22.563Z,2.80
2018-08-17T23:59:50.758Z,3.20
